sensor_id;sensor_type;location;lat;lon;timestamp;pressure;altitude;pressure_sealevel;temperature;humidity
73267;BME280;61495;53.400;7.608;2023-01-13T00:01:54;99899.72;;;8.78;95.38
73267;BME280;61495;53.400;7.608;2023-01-13T00:04:19;99901.78;;;8.76;95.26
73267;BME280;61495;53.400;7.608;2023-01-13T00:06:44;99897.91;;;8.72;95.07
73267;BME280;61495;53.400;7.608;2023-01-13T00:09:10;99910.22;;;8.73;95.36
73267;BME280;61495;53.400;7.608;2023-01-13T00:11:35;99905.91;;;8.72;95.14
73267;BME280;61495;53.400;7.608;2023-01-13T00:14:00;99901.00;;;8.69;94.62
73267;BME280;61495;53.400;7.608;2023-01-13T00:16:26;99908.00;;;8.70;95.88
73267;BME280;61495;53.400;7.608;2023-01-13T00:18:51;99907.38;;;8.68;95.37
73267;BME280;61495;53.400;7.608;2023-01-13T00:21:21;99914.19;;;8.64;95.78
73267;BME280;61495;53.400;7.608;2023-01-13T00:23:48;99910.91;;;8.62;95.29
73267;BME280;61495;53.400;7.608;2023-01-13T00:26:19;99902.91;;;8.62;95.36
73267;BME280;61495;53.400;7.608;2023-01-13T00:28:45;99906.00;;;8.59;95.59
73267;BME280;61495;53.400;7.608;2023-01-13T00:31:12;99902.16;;;8.55;94.82
73267;BME280;61495;53.400;7.608;2023-01-13T00:33:38;99911.03;;;8.49;94.63
73267;BME280;61495;53.400;7.608;2023-01-13T00:36:05;99920.88;;;8.48;95.33
73267;BME280;61495;53.400;7.608;2023-01-13T00:38:32;99928.94;;;8.42;93.83
73267;BME280;61495;53.400;7.608;2023-01-13T00:43:25;99929.78;;;8.35;93.55
73267;BME280;61495;53.400;7.608;2023-01-13T00:45:51;99929.81;;;8.29;92.98
73267;BME280;61495;53.400;7.608;2023-01-13T00:48:17;99928.38;;;8.26;92.64
73267;BME280;61495;53.400;7.608;2023-01-13T00:50:43;99926.94;;;8.24;92.52
73267;BME280;61495;53.400;7.608;2023-01-13T00:53:08;99939.47;;;8.23;94.47
73267;BME280;61495;53.400;7.608;2023-01-13T00:55:34;99934.16;;;8.17;91.00
73267;BME280;61495;53.400;7.608;2023-01-13T00:57:59;99937.47;;;8.12;92.04
73267;BME280;61495;53.400;7.608;2023-01-13T01:00:31;99938.50;;;8.11;92.40
73267;BME280;61495;53.400;7.608;2023-01-13T01:02:56;99934.66;;;8.07;91.76
73267;BME280;61495;53.400;7.608;2023-01-13T01:05:22;99930.53;;;8.05;92.21
73267;BME280;61495;53.400;7.608;2023-01-13T01:07:47;99919.91;;;7.98;92.01
73267;BME280;61495;53.400;7.608;2023-01-13T01:10:12;99927.28;;;7.96;92.61
73267;BME280;61495;53.400;7.608;2023-01-13T01:12:38;99918.53;;;7.89;90.70
73267;BME280;61495;53.400;7.608;2023-01-13T01:15:04;99924.69;;;7.83;90.84
73267;BME280;61495;53.400;7.608;2023-01-13T01:17:31;99924.06;;;7.81;90.62
73267;BME280;61495;53.400;7.608;2023-01-13T01:19:57;99917.94;;;7.80;91.24
73267;BME280;61495;53.400;7.608;2023-01-13T01:22:22;99924.88;;;7.81;93.77
73267;BME280;61495;53.400;7.608;2023-01-13T01:24:47;99929.81;;;7.78;93.38
73267;BME280;61495;53.400;7.608;2023-01-13T01:27:13;99936.81;;;7.72;91.58
73267;BME280;61495;53.400;7.608;2023-01-13T01:29:38;99931.53;;;7.66;91.58
73267;BME280;61495;53.400;7.608;2023-01-13T01:32:04;99940.75;;;7.63;89.92
73267;BME280;61495;53.400;7.608;2023-01-13T01:34:29;99938.31;;;7.62;91.02
73267;BME280;61495;53.400;7.608;2023-01-13T01:36:54;99947.31;;;7.61;92.03
73267;BME280;61495;53.400;7.608;2023-01-13T01:39:20;99939.13;;;7.56;90.83
73267;BME280;61495;53.400;7.608;2023-01-13T01:41:45;99944.66;;;7.54;91.18
73267;BME280;61495;53.400;7.608;2023-01-13T01:44:54;99938.97;;;7.51;90.72
73267;BME280;61495;53.400;7.608;2023-01-13T01:47:21;99938.56;;;7.47;91.65
73267;BME280;61495;53.400;7.608;2023-01-13T01:49:48;99939.56;;;7.46;91.05
73267;BME280;61495;53.400;7.608;2023-01-13T01:52:18;99943.47;;;7.44;92.26
73267;BME280;61495;53.400;7.608;2023-01-13T01:54:55;99945.53;;;7.35;91.06
73267;BME280;61495;53.400;7.608;2023-01-13T01:57:26;99942.69;;;7.30;90.57
73267;BME280;61495;53.400;7.608;2023-01-13T01:59:56;99941.47;;;7.33;92.49
73267;BME280;61495;53.400;7.608;2023-01-13T02:02:22;99950.88;;;7.28;91.44
73267;BME280;61495;53.400;7.608;2023-01-13T02:04:50;99955.38;;;7.35;92.48
73267;BME280;61495;53.400;7.608;2023-01-13T02:07:20;99948.03;;;7.23;90.78
73267;BME280;61495;53.400;7.608;2023-01-13T02:09:47;99950.09;;;7.21;90.40
73267;BME280;61495;53.400;7.608;2023-01-13T02:12:14;99947.63;;;7.26;93.07
73267;BME280;61495;53.400;7.608;2023-01-13T02:15:37;99945.19;;;7.18;90.64
73267;BME280;61495;53.400;7.608;2023-01-13T02:33:50;99937.38;;;7.04;89.99
73267;BME280;61495;53.400;7.608;2023-01-13T02:36:49;99930.03;;;6.99;90.17
73267;BME280;61495;53.400;7.608;2023-01-13T02:39:24;99934.94;;;6.96;89.98
73267;BME280;61495;53.400;7.608;2023-01-13T02:41:56;99928.78;;;6.95;90.80
73267;BME280;61495;53.400;7.608;2023-01-13T02:44:45;99930.66;;;6.95;90.52
73267;BME280;61495;53.400;7.608;2023-01-13T02:47:24;99926.34;;;6.94;90.60
73267;BME280;61495;53.400;7.608;2023-01-13T02:50:06;99916.28;;;6.96;90.20
73267;BME280;61495;53.400;7.608;2023-01-13T02:52:50;99926.34;;;6.94;90.99
73267;BME280;61495;53.400;7.608;2023-01-13T02:55:25;99917.34;;;6.95;90.17
73267;BME280;61495;53.400;7.608;2023-01-13T02:57:54;99913.22;;;6.92;91.07
73267;BME280;61495;53.400;7.608;2023-01-13T03:00:23;99917.75;;;6.92;91.13
73267;BME280;61495;53.400;7.608;2023-01-13T03:02:48;99903.19;;;6.94;90.60
73267;BME280;61495;53.400;7.608;2023-01-13T03:05:15;99895.22;;;6.94;91.36
73267;BME280;61495;53.400;7.608;2023-01-13T03:11:11;99879.84;;;6.96;90.96
73267;BME280;61495;53.400;7.608;2023-01-13T03:16:46;99873.91;;;6.94;91.06
73267;BME280;61495;53.400;7.608;2023-01-13T03:22:22;99878.81;;;6.91;90.33
73267;BME280;61495;53.400;7.608;2023-01-13T03:24:56;99881.69;;;6.89;90.88
73267;BME280;61495;53.400;7.608;2023-01-13T03:30:00;99869.81;;;6.85;91.25
73267;BME280;61495;53.400;7.608;2023-01-13T03:32:32;99879.44;;;6.86;90.90
73267;BME280;61495;53.400;7.608;2023-01-13T03:37:37;99876.16;;;6.84;90.85
73267;BME280;61495;53.400;7.608;2023-01-13T03:42:36;99853.84;;;6.79;90.87
73267;BME280;61495;53.400;7.608;2023-01-13T03:45:12;99855.28;;;6.81;91.02
73267;BME280;61495;53.400;7.608;2023-01-13T03:47:45;99867.34;;;6.77;91.00
73267;BME280;61495;53.400;7.608;2023-01-13T03:50:24;99855.91;;;6.77;90.39
73267;BME280;61495;53.400;7.608;2023-01-13T03:53:01;99860.81;;;6.73;90.86
73267;BME280;61495;53.400;7.608;2023-01-13T03:55:31;99861.63;;;6.80;91.07
73267;BME280;61495;53.400;7.608;2023-01-13T03:58:09;99862.84;;;6.84;91.06
73267;BME280;61495;53.400;7.608;2023-01-13T04:01:01;99855.88;;;6.83;91.35
73267;BME280;61495;53.400;7.608;2023-01-13T04:03:38;99849.53;;;6.84;90.79
73267;BME280;61495;53.400;7.608;2023-01-13T04:08:55;99850.97;;;6.87;90.95
73267;BME280;61495;53.400;7.608;2023-01-13T04:11:29;99846.47;;;6.87;90.89
73267;BME280;61495;53.400;7.608;2023-01-13T04:13:57;99840.13;;;6.88;90.76
73267;BME280;61495;53.400;7.608;2023-01-13T04:16:23;99843.41;;;6.90;90.85
73267;BME280;61495;53.400;7.608;2023-01-13T04:18:49;99837.88;;;6.85;90.96
73267;BME280;61495;53.400;7.608;2023-01-13T04:21:14;99842.56;;;6.83;90.64
73267;BME280;61495;53.400;7.608;2023-01-13T04:23:40;99838.28;;;6.82;91.00
73267;BME280;61495;53.400;7.608;2023-01-13T04:26:05;99851.59;;;6.82;91.63
73267;BME280;61495;53.400;7.608;2023-01-13T04:28:30;99839.72;;;6.78;91.75
73267;BME280;61495;53.400;7.608;2023-01-13T04:30:57;99839.53;;;6.80;91.97
73267;BME280;61495;53.400;7.608;2023-01-13T04:33:23;99842.78;;;6.82;91.88
73267;BME280;61495;53.400;7.608;2023-01-13T04:35:48;99835.00;;;6.80;91.98
73267;BME280;61495;53.400;7.608;2023-01-13T04:38:15;99831.31;;;6.75;92.24
73267;BME280;61495;53.400;7.608;2023-01-13T04:40:41;99839.13;;;6.76;92.03
73267;BME280;61495;53.400;7.608;2023-01-13T04:43:07;99848.72;;;6.77;92.15
73267;BME280;61495;53.400;7.608;2023-01-13T04:45:32;99841.78;;;6.76;92.07
73267;BME280;61495;53.400;7.608;2023-01-13T04:47:58;99832.97;;;6.76;92.13
73267;BME280;61495;53.400;7.608;2023-01-13T04:50:24;99844.84;;;6.73;92.29
73267;BME280;61495;53.400;7.608;2023-01-13T04:52:51;99837.28;;;6.77;92.42
73267;BME280;61495;53.400;7.608;2023-01-13T04:55:18;99839.13;;;6.76;92.36
73267;BME280;61495;53.400;7.608;2023-01-13T04:57:44;99843.03;;;6.74;92.29
73267;BME280;61495;53.400;7.608;2023-01-13T05:00:11;99833.16;;;6.74;92.31
73267;BME280;61495;53.400;7.608;2023-01-13T05:02:37;99829.91;;;6.72;92.02
73267;BME280;61495;53.400;7.608;2023-01-13T05:05:03;99832.56;;;6.72;91.66
73267;BME280;61495;53.400;7.608;2023-01-13T05:07:28;99826.22;;;6.73;91.73
73267;BME280;61495;53.400;7.608;2023-01-13T05:09:54;99829.91;;;6.72;91.88
73267;BME280;61495;53.400;7.608;2023-01-13T05:12:19;99830.94;;;6.71;91.95
73267;BME280;61495;53.400;7.608;2023-01-13T05:15:03;99821.50;;;6.75;91.30
73267;BME280;61495;53.400;7.608;2023-01-13T05:17:47;99812.69;;;6.75;91.51
73267;BME280;61495;53.400;7.608;2023-01-13T05:20:14;99820.91;;;6.73;91.80
73267;BME280;61495;53.400;7.608;2023-01-13T05:22:39;99817.41;;;6.72;91.41
73267;BME280;61495;53.400;7.608;2023-01-13T05:25:24;99811.69;;;6.69;91.57
73267;BME280;61495;53.400;7.608;2023-01-13T05:27:54;99810.84;;;6.75;90.79
73267;BME280;61495;53.400;7.608;2023-01-13T05:30:22;99818.03;;;6.75;90.99
73267;BME280;61495;53.400;7.608;2023-01-13T05:32:47;99820.50;;;6.76;91.00
73267;BME280;61495;53.400;7.608;2023-01-13T05:35:14;99814.53;;;6.74;91.05
73267;BME280;61495;53.400;7.608;2023-01-13T05:37:43;99827.25;;;6.72;91.19
73267;BME280;61495;53.400;7.608;2023-01-13T05:40:10;99817.63;;;6.71;91.20
73267;BME280;61495;53.400;7.608;2023-01-13T05:43:14;99817.41;;;6.79;90.95
73267;BME280;61495;53.400;7.608;2023-01-13T05:48:20;99822.31;;;6.82;90.92
73267;BME280;61495;53.400;7.608;2023-01-13T05:50:47;99817.59;;;6.84;91.33
73267;BME280;61495;53.400;7.608;2023-01-13T05:53:14;99821.91;;;6.85;91.22
73267;BME280;61495;53.400;7.608;2023-01-13T05:55:41;99813.28;;;6.90;90.64
73267;BME280;61495;53.400;7.608;2023-01-13T05:58:07;99820.25;;;6.91;91.04
73267;BME280;61495;53.400;7.608;2023-01-13T06:00:33;99818.59;;;6.90;90.75
73267;BME280;61495;53.400;7.608;2023-01-13T06:02:59;99808.38;;;6.93;90.84
73267;BME280;61495;53.400;7.608;2023-01-13T06:05:24;99799.56;;;6.93;90.32
73267;BME280;61495;53.400;7.608;2023-01-13T06:07:49;99809.59;;;6.97;90.68
73267;BME280;61495;53.400;7.608;2023-01-13T06:10:16;99802.84;;;6.95;90.34
73267;BME280;61495;53.400;7.608;2023-01-13T06:12:41;99811.63;;;6.95;90.40
73267;BME280;61495;53.400;7.608;2023-01-13T06:15:07;99808.56;;;6.98;90.57
73267;BME280;61495;53.400;7.608;2023-01-13T06:17:32;99812.03;;;6.99;90.38
73267;BME280;61495;53.400;7.608;2023-01-13T06:19:57;99804.88;;;6.99;90.60
73267;BME280;61495;53.400;7.608;2023-01-13T06:22:29;99802.81;;;7.01;90.15
73267;BME280;61495;53.400;7.608;2023-01-13T06:25:00;99789.28;;;7.03;90.42
73267;BME280;61495;53.400;7.608;2023-01-13T06:27:27;99802.19;;;7.06;89.79
73267;BME280;61495;53.400;7.608;2023-01-13T06:29:53;99799.72;;;7.04;90.49
73267;BME280;61495;53.400;7.608;2023-01-13T06:32:27;99799.72;;;7.04;90.07
73267;BME280;61495;53.400;7.608;2023-01-13T06:35:00;99792.38;;;7.06;89.81
73267;BME280;61495;53.400;7.608;2023-01-13T06:37:28;99787.03;;;7.06;90.08
73267;BME280;61495;53.400;7.608;2023-01-13T06:39:56;99795.03;;;7.06;89.86
73267;BME280;61495;53.400;7.608;2023-01-13T06:42:27;99790.72;;;7.05;89.81
73267;BME280;61495;53.400;7.608;2023-01-13T06:45:12;99804.44;;;7.02;91.52
73267;BME280;61495;53.400;7.608;2023-01-13T06:47:38;99793.19;;;7.00;92.53
73267;BME280;61495;53.400;7.608;2023-01-13T06:50:03;99791.56;;;6.99;92.64
73267;BME280;61495;53.400;7.608;2023-01-13T06:52:29;99789.53;;;6.95;92.44
73267;BME280;61495;53.400;7.608;2023-01-13T06:54:55;99796.88;;;6.99;91.67
73267;BME280;61495;53.400;7.608;2023-01-13T06:57:22;99785.22;;;6.94;91.96
73267;BME280;61495;53.400;7.608;2023-01-13T06:59:48;99793.00;;;6.95;91.60
73267;BME280;61495;53.400;7.608;2023-01-13T07:02:14;99788.28;;;6.97;91.18
73267;BME280;61495;53.400;7.608;2023-01-13T07:04:39;99795.25;;;6.98;90.92
73267;BME280;61495;53.400;7.608;2023-01-13T07:07:04;99789.50;;;7.01;91.00
73267;BME280;61495;53.400;7.608;2023-01-13T07:09:31;99797.06;;;6.98;91.25
73267;BME280;61495;53.400;7.608;2023-01-13T07:11:57;99798.09;;;7.03;90.25
73267;BME280;61495;53.400;7.608;2023-01-13T07:14:22;99793.81;;;7.02;91.21
73267;BME280;61495;53.400;7.608;2023-01-13T07:17:06;99807.31;;;7.01;90.87
73267;BME280;61495;53.400;7.608;2023-01-13T07:19:31;99792.38;;;7.00;90.98
73267;BME280;61495;53.400;7.608;2023-01-13T07:21:57;99800.56;;;6.98;91.04
73267;BME280;61495;53.400;7.608;2023-01-13T07:24:22;99799.75;;;6.98;91.09
73267;BME280;61495;53.400;7.608;2023-01-13T07:26:49;99795.25;;;6.98;90.78
73267;BME280;61495;53.400;7.608;2023-01-13T07:29:15;99804.44;;;7.02;90.29
73267;BME280;61495;53.400;7.608;2023-01-13T07:31:40;99802.81;;;7.01;90.54
73267;BME280;61495;53.400;7.608;2023-01-13T07:34:05;99794.00;;;7.01;90.41
73267;BME280;61495;53.400;7.608;2023-01-13T07:36:31;99794.81;;;7.01;90.37
73267;BME280;61495;53.400;7.608;2023-01-13T07:38:56;99803.84;;;7.00;90.86
73267;BME280;61495;53.400;7.608;2023-01-13T07:41:22;99812.84;;;6.99;91.04
73267;BME280;61495;53.400;7.608;2023-01-13T07:44:06;99822.28;;;6.95;91.42
73267;BME280;61495;53.400;7.608;2023-01-13T07:46:34;99814.50;;;7.00;90.77
73267;BME280;61495;53.400;7.608;2023-01-13T07:49:00;99812.44;;;7.02;90.83
73267;BME280;61495;53.400;7.608;2023-01-13T07:51:25;99818.19;;;6.99;91.60
73267;BME280;61495;53.400;7.608;2023-01-13T07:53:50;99796.88;;;6.99;90.98
73267;BME280;61495;53.400;7.608;2023-01-13T07:56:16;99821.84;;;6.98;91.33
73267;BME280;61495;53.400;7.608;2023-01-13T07:58:42;99829.84;;;6.98;91.64
73267;BME280;61495;53.400;7.608;2023-01-13T08:01:09;99832.31;;;6.93;92.33
73267;BME280;61495;53.400;7.608;2023-01-13T08:03:36;99828.84;;;6.93;92.71
73267;BME280;61495;53.400;7.608;2023-01-13T08:06:01;99831.72;;;6.91;92.84
73267;BME280;61495;53.400;7.608;2023-01-13T08:08:27;99832.97;;;6.89;93.21
73267;BME280;61495;53.400;7.608;2023-01-13T08:10:52;99844.81;;;6.86;93.68
73267;BME280;61495;53.400;7.608;2023-01-13T08:13:18;99847.72;;;6.85;93.89
73267;BME280;61495;53.400;7.608;2023-01-13T08:15:46;99857.53;;;6.84;94.07
73267;BME280;61495;53.400;7.608;2023-01-13T08:18:12;99854.03;;;6.84;94.49
73267;BME280;61495;53.400;7.608;2023-01-13T08:20:38;99846.06;;;6.77;94.25
73267;BME280;61495;53.400;7.608;2023-01-13T08:23:03;99850.38;;;6.78;94.90
73267;BME280;61495;53.400;7.608;2023-01-13T08:25:30;99837.88;;;6.72;95.25
73267;BME280;61495;53.400;7.608;2023-01-13T08:27:55;99851.19;;;6.72;95.67
73267;BME280;61495;53.400;7.608;2023-01-13T08:30:21;99845.03;;;6.71;96.36
73267;BME280;61495;53.400;7.608;2023-01-13T08:32:48;99848.13;;;6.68;96.18
73267;BME280;61495;53.400;7.608;2023-01-13T08:35:15;99860.63;;;6.68;96.67
73267;BME280;61495;53.400;7.608;2023-01-13T08:37:41;99844.25;;;6.64;96.76
73267;BME280;61495;53.400;7.608;2023-01-13T08:40:07;99853.06;;;6.65;96.80
73267;BME280;61495;53.400;7.608;2023-01-13T08:42:33;99847.53;;;6.66;96.29
73267;BME280;61495;53.400;7.608;2023-01-13T08:44:58;99842.41;;;6.65;96.45
73267;BME280;61495;53.400;7.608;2023-01-13T08:47:26;99841.19;;;6.61;96.67
73267;BME280;61495;53.400;7.608;2023-01-13T08:49:52;99854.25;;;6.62;96.42
73267;BME280;61495;53.400;7.608;2023-01-13T08:52:18;99849.75;;;6.63;96.09
73267;BME280;61495;53.400;7.608;2023-01-13T08:54:43;99851.19;;;6.65;96.34
73267;BME280;61495;53.400;7.608;2023-01-13T08:57:09;99846.69;;;6.66;96.02
73267;BME280;61495;53.400;7.608;2023-01-13T08:59:34;99846.69;;;6.66;95.88
73267;BME280;61495;53.400;7.608;2023-01-13T09:02:00;99845.69;;;6.67;95.82
73267;BME280;61495;53.400;7.608;2023-01-13T09:04:26;99838.72;;;6.66;95.46
73267;BME280;61495;53.400;7.608;2023-01-13T09:06:53;99841.19;;;6.67;95.74
73267;BME280;61495;53.400;7.608;2023-01-13T09:09:20;99842.00;;;6.68;94.84
73267;BME280;61495;53.400;7.608;2023-01-13T09:11:48;99851.78;;;6.74;94.85
73267;BME280;61495;53.400;7.608;2023-01-13T09:14:35;99853.44;;;6.75;94.80
73267;BME280;61495;53.400;7.608;2023-01-13T09:17:01;99867.75;;;6.74;95.22
73267;BME280;61495;53.400;7.608;2023-01-13T09:19:27;99856.31;;;6.74;95.85
73267;BME280;61495;53.400;7.608;2023-01-13T09:21:53;99844.44;;;6.69;95.80
73267;BME280;61495;53.400;7.608;2023-01-13T09:24:20;99857.34;;;6.72;95.60
73267;BME280;61495;53.400;7.608;2023-01-13T09:26:45;99857.13;;;6.74;95.77
73267;BME280;61495;53.400;7.608;2023-01-13T09:29:11;99860.41;;;6.76;95.60
73267;BME280;61495;53.400;7.608;2023-01-13T09:31:36;99848.72;;;6.77;95.65
73267;BME280;61495;53.400;7.608;2023-01-13T09:34:03;99850.38;;;6.78;95.20
73267;BME280;61495;53.400;7.608;2023-01-13T09:36:48;99863.25;;;6.81;95.35
73267;BME280;61495;53.400;7.608;2023-01-13T09:39:14;99858.75;;;6.82;95.44
73267;BME280;61495;53.400;7.608;2023-01-13T09:41:51;99850.16;;;6.86;95.04
73267;BME280;61495;53.400;7.608;2023-01-13T09:47:34;99862.44;;;6.87;95.36
73267;BME280;61495;53.400;7.608;2023-01-13T09:50:23;99848.13;;;6.88;95.21
73267;BME280;61495;53.400;7.608;2023-01-13T09:52:51;99865.69;;;6.89;95.19
73267;BME280;61495;53.400;7.608;2023-01-13T09:55:24;99867.94;;;6.92;95.40
73267;BME280;61495;53.400;7.608;2023-01-13T09:57:50;99884.97;;;6.91;95.90
73267;BME280;61495;53.400;7.608;2023-01-13T10:00:24;99883.94;;;6.92;95.46
73267;BME280;61495;53.400;7.608;2023-01-13T10:08:12;99885.38;;;6.88;96.65
73267;BME280;61495;53.400;7.608;2023-01-13T10:10:51;99887.41;;;6.86;97.53
73267;BME280;61495;53.400;7.608;2023-01-13T10:13:27;99892.75;;;6.86;97.45
73267;BME280;61495;53.400;7.608;2023-01-13T10:24:04;99905.84;;;6.81;98.30
73267;BME280;61495;53.400;7.608;2023-01-13T10:26:47;99910.34;;;6.81;98.32
73267;BME280;61495;53.400;7.608;2023-01-13T10:29:22;99912.19;;;6.80;98.62
73267;BME280;61495;53.400;7.608;2023-01-13T10:31:50;99910.34;;;6.81;98.60
73267;BME280;61495;53.400;7.608;2023-01-13T10:34:16;99907.91;;;6.79;98.49
73267;BME280;61495;53.400;7.608;2023-01-13T10:36:53;99901.34;;;6.75;98.74
73267;BME280;61495;53.400;7.608;2023-01-13T10:39:21;99915.91;;;6.79;98.96
73267;BME280;61495;53.400;7.608;2023-01-13T10:41:47;99909.53;;;6.80;98.97
73267;BME280;61495;53.400;7.608;2023-01-13T10:44:17;99918.75;;;6.78;99.30
73267;BME280;61495;53.400;7.608;2023-01-13T10:46:52;99909.94;;;6.77;99.56
73267;BME280;61495;53.400;7.608;2023-01-13T10:49:36;99918.97;;;6.76;99.36
73267;BME280;61495;53.400;7.608;2023-01-13T10:52:24;99903.81;;;6.77;99.37
73267;BME280;61495;53.400;7.608;2023-01-13T10:54:51;99911.41;;;6.73;100.00
73267;BME280;61495;53.400;7.608;2023-01-13T10:57:19;99920.38;;;6.72;99.44
73267;BME280;61495;53.400;7.608;2023-01-13T10:59:46;99929.19;;;6.72;100.00
73267;BME280;61495;53.400;7.608;2023-01-13T11:02:32;99925.53;;;6.74;99.84
73267;BME280;61495;53.400;7.608;2023-01-13T11:05:09;99924.09;;;6.71;99.88
73267;BME280;61495;53.400;7.608;2023-01-13T11:07:45;99925.72;;;6.72;99.94
73267;BME280;61495;53.400;7.608;2023-01-13T11:10:26;99925.13;;;6.70;99.68
73267;BME280;61495;53.400;7.608;2023-01-13T11:16:28;99908.72;;;6.73;99.94
73267;BME280;61495;53.400;7.608;2023-01-13T11:19:03;99922.47;;;6.77;99.85
73267;BME280;61495;53.400;7.608;2023-01-13T11:24:33;99914.06;;;6.80;99.96
73267;BME280;61495;53.400;7.608;2023-01-13T11:27:14;99923.47;;;6.82;99.86
73267;BME280;61495;53.400;7.608;2023-01-13T11:30:14;99930.41;;;6.83;99.34
73267;BME280;61495;53.400;7.608;2023-01-13T11:32:59;99934.53;;;6.86;98.96
73267;BME280;61495;53.400;7.608;2023-01-13T11:35:30;99928.81;;;6.89;98.78
73267;BME280;61495;53.400;7.608;2023-01-13T11:38:05;99925.31;;;6.88;99.33
73267;BME280;61495;53.400;7.608;2023-01-13T11:40:43;99931.25;;;6.90;98.77
73267;BME280;61495;53.400;7.608;2023-01-13T11:43:16;99930.84;;;6.93;98.66
73267;BME280;61495;53.400;7.608;2023-01-13T11:45:55;99912.00;;;6.95;98.53
73267;BME280;61495;53.400;7.608;2023-01-13T11:48:24;99923.03;;;6.98;98.37
73267;BME280;61495;53.400;7.608;2023-01-13T11:54:36;99936.38;;;7.11;98.91
73267;BME280;61495;53.400;7.608;2023-01-13T12:00:16;99938.19;;;7.11;97.96
73267;BME280;61495;53.400;7.608;2023-01-13T12:03:13;99930.81;;;7.13;98.09
73267;BME280;61495;53.400;7.608;2023-01-13T12:05:58;99927.13;;;7.14;97.91
73267;BME280;61495;53.400;7.608;2023-01-13T12:11:26;99943.53;;;7.17;97.50
73267;BME280;61495;53.400;7.608;2023-01-13T12:14:24;99934.53;;;7.18;97.56
73267;BME280;61495;53.400;7.608;2023-01-13T12:16:52;99947.63;;;7.20;97.83
73267;BME280;61495;53.400;7.608;2023-01-13T12:19:21;99950.28;;;7.20;97.58
73267;BME280;61495;53.400;7.608;2023-01-13T12:22:00;99939.44;;;7.21;97.50
73267;BME280;61495;53.400;7.608;2023-01-13T12:24:31;99941.06;;;7.22;97.31
73267;BME280;61495;53.400;7.608;2023-01-13T12:27:08;99944.75;;;7.21;97.43
73267;BME280;61495;53.400;7.608;2023-01-13T12:29:36;99949.47;;;7.19;97.61
73267;BME280;61495;53.400;7.608;2023-01-13T12:32:09;99942.09;;;7.21;98.29
73267;BME280;61495;53.400;7.608;2023-01-13T12:37:39;99938.19;;;7.24;98.14
73267;BME280;61495;53.400;7.608;2023-01-13T12:40:18;99942.69;;;7.23;97.89
73267;BME280;61495;53.400;7.608;2023-01-13T12:43:06;99944.31;;;7.24;97.80
73267;BME280;61495;53.400;7.608;2023-01-13T12:48:44;99952.94;;;7.26;97.51
73267;BME280;61495;53.400;7.608;2023-01-13T12:51:21;99949.44;;;7.26;97.91
73267;BME280;61495;53.400;7.608;2023-01-13T12:53:47;99954.56;;;7.27;97.32
73267;BME280;61495;53.400;7.608;2023-01-13T12:56:36;99956.63;;;7.25;97.73
73267;BME280;61495;53.400;7.608;2023-01-13T13:02:14;99956.63;;;7.19;98.60
73267;BME280;61495;53.400;7.608;2023-01-13T13:04:44;99968.50;;;7.16;98.25
73267;BME280;61495;53.400;7.608;2023-01-13T13:10:01;99986.16;;;7.17;98.88
73267;BME280;61495;53.400;7.608;2023-01-13T13:15:25;99989.81;;;7.16;98.90
73267;BME280;61495;53.400;7.608;2023-01-13T13:26:19;99985.53;;;7.02;97.17
73267;BME280;61495;53.400;7.608;2023-01-13T13:34:31;100000.91;;;7.00;96.82
73267;BME280;61495;53.400;7.608;2023-01-13T13:39:32;99994.34;;;7.03;97.17
73267;BME280;61495;53.400;7.608;2023-01-13T13:42:20;99995.16;;;7.03;97.41
73267;BME280;61495;53.400;7.608;2023-01-13T13:45:14;99996.78;;;7.04;97.43
73267;BME280;61495;53.400;7.608;2023-01-13T13:50:53;100026.31;;;7.09;97.81
73267;BME280;61495;53.400;7.608;2023-01-13T13:53:27;100015.84;;;7.08;98.54
73267;BME280;61495;53.400;7.608;2023-01-13T13:55:56;100017.69;;;7.07;98.66
73267;BME280;61495;53.400;7.608;2023-01-13T13:58:23;100025.25;;;7.10;98.35
73267;BME280;61495;53.400;7.608;2023-01-13T14:00:51;100031.22;;;7.12;97.93
73267;BME280;61495;53.400;7.608;2023-01-13T14:03:23;100036.16;;;7.15;97.42
73267;BME280;61495;53.400;7.608;2023-01-13T14:05:58;100032.84;;;7.13;97.16
73267;BME280;61495;53.400;7.608;2023-01-13T14:08:27;100046.16;;;7.13;97.43
73267;BME280;61495;53.400;7.608;2023-01-13T14:10:53;100049.88;;;7.12;97.55
73267;BME280;61495;53.400;7.608;2023-01-13T14:13:24;100042.66;;;7.13;97.48
73267;BME280;61495;53.400;7.608;2023-01-13T14:16:04;100053.13;;;7.14;97.39
73267;BME280;61495;53.400;7.608;2023-01-13T14:18:32;100060.72;;;7.17;96.45
73267;BME280;61495;53.400;7.608;2023-01-13T14:21:18;100052.91;;;7.16;96.96
73267;BME280;61495;53.400;7.608;2023-01-13T14:24:02;100052.91;;;7.16;96.35
73267;BME280;61495;53.400;7.608;2023-01-13T14:26:35;100055.00;;;7.20;96.41
73267;BME280;61495;53.400;7.608;2023-01-13T14:29:02;100058.25;;;7.22;96.15
73267;BME280;61495;53.400;7.608;2023-01-13T14:31:28;100065.66;;;7.20;96.44
73267;BME280;61495;53.400;7.608;2023-01-13T14:33:56;100071.97;;;7.19;96.92
73267;BME280;61495;53.400;7.608;2023-01-13T14:41:31;100074.66;;;7.19;96.78
73267;BME280;61495;53.400;7.608;2023-01-13T14:44:00;100068.09;;;7.15;96.81
73267;BME280;61495;53.400;7.608;2023-01-13T14:46:40;100089.00;;;7.18;97.11
73267;BME280;61495;53.400;7.608;2023-01-13T14:52:14;100089.81;;;7.19;96.31
73267;BME280;61495;53.400;7.608;2023-01-13T14:54:50;100100.47;;;7.19;96.83
73267;BME280;61495;53.400;7.608;2023-01-13T15:07:54;100162.69;;;6.98;97.28
73267;BME280;61495;53.400;7.608;2023-01-13T15:10:25;100181.91;;;6.87;96.03
73267;BME280;61495;53.400;7.608;2023-01-13T15:12:54;100154.44;;;6.80;96.01
73267;BME280;61495;53.400;7.608;2023-01-13T15:17:58;100166.69;;;6.75;95.77
73267;BME280;61495;53.400;7.608;2023-01-13T15:20:23;100168.97;;;6.71;95.64
73267;BME280;61495;53.400;7.608;2023-01-13T15:22:50;100170.38;;;6.67;95.54
73267;BME280;61495;53.400;7.608;2023-01-13T15:25:17;100172.03;;;6.68;96.09
73267;BME280;61495;53.400;7.608;2023-01-13T15:27:44;100168.72;;;6.66;95.83
73267;BME280;61495;53.400;7.608;2023-01-13T15:30:28;100177.75;;;6.65;96.15
73267;BME280;61495;53.400;7.608;2023-01-13T15:32:55;100193.72;;;6.65;96.31
73267;BME280;61495;53.400;7.608;2023-01-13T15:35:22;100185.72;;;6.65;96.41
73267;BME280;61495;53.400;7.608;2023-01-13T15:37:48;100191.84;;;6.65;96.74